Time;durP1;ratioP1;P1;durP2;ratioP2;P2;SDS_P1;SDS_P2;PMS_P1;PMS_P2;Temp;Humidity;BMP_temperature;BMP_pressure;BME280_temperature;BME280_humidity;BME280_pressure;Samples;Min_cycle;Max_cycle;Signal;HPM_P1;HPM_P2
2021/09/30 00:01:29;;;;;;;;;;;;;;;10.87;81.28;100608.13;5087945;28;1276;-59
2021/09/30 00:06:59;;;;;;;;;;;;;;;10.98;80.85;100604.22;5093296;28;601;-59
2021/09/30 00:09:26;;;;;;;;;;;;;;;11.03;80.79;100597.53;5093000;28;865;-59
2021/09/30 00:12:00;;;;;;;;;;;;;;;11.02;80.62;100601.50;5093015;28;866;-59
2021/09/30 00:33:45;;;;;;;;;;;;;;;10.91;80.38;100592.34;5092591;28;629;-60
2021/09/30 00:41:46;;;;;;;;;;;;;;;10.91;79.94;100595.09;5092872;28;609;-59
2021/09/30 00:49:47;;;;;;;;;;;;;;;11.06;80.08;100577.41;5092272;28;732;-59
2021/09/30 00:55:08;;;;;;;;;;;;;;;11.18;79.23;100577.09;5092217;28;800;-59
2021/09/30 02:59:13;;;;;;;;;;;;;;;12.22;71.15;100573.84;5062808;28;1264;-59
2021/09/30 03:01:42;;;;;;;;;;;;;;;12.15;71.18;100580.16;5094116;28;1240;-59
2021/09/30 03:04:08;;;;;;;;;;;;;;;12.16;70.46;100581.75;5094317;28;858;-59
2021/09/30 03:06:36;;;;;;;;;;;;;;;12.11;71.00;100578.56;5094283;28;798;-60
2021/09/30 03:09:06;;;;;;;;;;;;;;;12.04;71.08;100579.38;5094302;28;889;-59
2021/09/30 03:11:37;;;;;;;;;;;;;;;12.03;70.86;100595.19;5075992;28;1267;-59
2021/09/30 03:14:06;;;;;;;;;;;;;;;11.97;71.31;100591.22;5094097;28;854;-59
2021/09/30 03:16:48;;;;;;;;;;;;;;;11.89;70.98;100584.09;5076150;28;1917;-59
2021/09/30 03:19:30;;;;;;;;;;;;;;;11.84;71.16;100590.78;5094079;28;925;-59
2021/09/30 03:24:47;;;;;;;;;;;;;;;11.71;71.66;100584.00;5093931;28;672;-60
2021/09/30 03:27:14;;;;;;;;;;;;;;;11.68;71.45;100582.03;5094061;28;853;-59
2021/09/30 03:29:41;;;;;;;;;;;;;;;11.63;71.49;100591.50;5093621;28;823;-59
2021/09/30 03:32:08;;;;;;;;;;;;;;;11.62;71.74;100589.91;5093660;28;815;-59
2021/09/30 03:34:35;;;;;;;;;;;;;;;11.55;71.79;100592.66;5093771;28;846;-59
2021/09/30 03:37:02;;;;;;;;;;;;;;;11.49;72.06;100596.19;5093890;28;1940;-59
2021/09/30 03:39:29;;;;;;;;;;;;;;;11.42;72.20;100591.44;5093714;28;830;-59
2021/09/30 03:41:55;;;;;;;;;;;;;;;11.39;72.42;100589.41;5093550;28;794;-59
2021/09/30 03:44:22;;;;;;;;;;;;;;;11.36;72.43;100584.69;5093637;28;885;-59
2021/09/30 03:46:52;;;;;;;;;;;;;;;11.33;73.00;100591.78;5093552;28;869;-59
2021/09/30 03:49:28;;;;;;;;;;;;;;;11.29;72.65;100593.75;5075278;28;1492;-60
2021/09/30 03:52:09;;;;;;;;;;;;;;;11.29;72.84;100599.28;5093511;28;830;-59
2021/09/30 03:54:42;;;;;;;;;;;;;;;11.33;72.52;100593.75;5093161;28;885;-59
2021/09/30 03:59:55;;;;;;;;;;;;;;;11.38;72.17;100607.22;5061282;28;1378;-60
2021/09/30 04:02:22;;;;;;;;;;;;;;;11.32;72.55;100609.56;5093604;28;861;-59
2021/09/30 04:04:49;;;;;;;;;;;;;;;11.29;72.45;100606.75;5093900;28;813;-59
2021/09/30 04:07:18;;;;;;;;;;;;;;;11.29;72.20;100604.81;5093467;28;826;-60
2021/09/30 04:09:45;;;;;;;;;;;;;;;11.28;72.18;100597.66;5093271;28;833;-59
2021/09/30 04:12:13;;;;;;;;;;;;;;;11.26;71.98;100605.56;5093381;28;802;-59
2021/09/30 04:14:40;;;;;;;;;;;;;;;11.24;71.89;100600.44;5093105;28;806;-59
2021/09/30 04:17:08;;;;;;;;;;;;;;;11.37;71.24;100606.44;5092907;28;1917;-59
2021/09/30 04:19:34;;;;;;;;;;;;;;;11.42;70.75;100606.06;5092990;28;861;-59
2021/09/30 04:22:01;;;;;;;;;;;;;;;11.47;70.59;100604.88;5092823;28;892;-59
2021/09/30 04:24:28;;;;;;;;;;;;;;;11.52;70.39;100603.72;5092804;28;1014;-59
2021/09/30 04:26:55;;;;;;;;;;;;;;;11.49;70.51;100605.28;5092994;28;822;-59
2021/09/30 04:29:23;;;;;;;;;;;;;;;11.41;71.09;100607.25;5092379;28;806;-59
2021/09/30 04:31:50;;;;;;;;;;;;;;;11.38;71.55;100610.00;5092715;28;884;-59
2021/09/30 04:34:17;;;;;;;;;;;;;;;11.34;71.68;100607.19;5074454;28;1164;-60
2021/09/30 04:36:45;;;;;;;;;;;;;;;11.35;71.95;100619.06;5092696;28;1898;-59
2021/09/30 04:39:13;;;;;;;;;;;;;;;11.31;72.55;100615.47;5092442;28;850;-59
2021/09/30 04:41:43;;;;;;;;;;;;;;;11.27;73.06;100618.25;5073681;28;1325;-59
2021/09/30 04:44:09;;;;;;;;;;;;;;;11.22;73.36;100624.94;5092431;28;842;-59
2021/09/30 04:46:35;;;;;;;;;;;;;;;11.20;73.72;100616.22;5092452;28;875;-60
2021/09/30 04:49:02;;;;;;;;;;;;;;;11.18;73.90;100613.06;5092385;28;802;-59
2021/09/30 04:51:29;;;;;;;;;;;;;;;11.24;73.79;100616.22;5092202;28;803;-59
2021/09/30 04:53:55;;;;;;;;;;;;;;;11.34;74.04;100618.25;5092147;28;849;-60
2021/09/30 04:56:22;;;;;;;;;;;;;;;11.42;73.71;100622.66;5092272;28;791;-59
2021/09/30 04:58:49;;;;;;;;;;;;;;;11.56;73.51;100619.16;5073949;28;1939;-60
2021/09/30 05:01:16;;;;;;;;;;;;;;;11.73;73.35;100631.47;5091998;28;1184;-59
2021/09/30 05:03:43;;;;;;;;;;;;;;;11.90;72.74;100631.97;5092013;28;870;-59
2021/09/30 05:06:10;;;;;;;;;;;;;;;12.03;72.50;100630.41;5091939;28;802;-60
2021/09/30 05:08:37;;;;;;;;;;;;;;;12.18;72.38;100628.47;5092066;28;787;-59
2021/09/30 05:16:40;;;;;;;;;;;;;;;12.55;71.10;100625.34;6118075;22;1686;-60
2021/09/30 05:19:07;;;;;;;;;;;;;;;12.66;70.60;100630.88;4992387;28;890;-59
2021/09/30 05:21:33;;;;;;;;;;;;;;;12.78;70.25;100633.25;4992444;28;937;-59
2021/09/30 05:23:59;;;;;;;;;;;;;;;12.96;69.88;100624.91;4992406;28;909;-59
2021/09/30 05:26:29;;;;;;;;;;;;;;;13.12;69.00;100621.72;4992228;28;791;-59
2021/09/30 05:28:56;;;;;;;;;;;;;;;13.17;68.14;100624.06;4975245;28;1344;-59
2021/09/30 05:31:22;;;;;;;;;;;;;;;13.23;68.40;100618.91;4992531;28;909;-59
2021/09/30 05:34:24;;;;;;;;;;;;;;;13.40;67.52;100617.28;4992268;28;882;-59
2021/09/30 05:36:52;;;;;;;;;;;;;;;13.51;67.05;100606.16;4992142;28;1964;-59
2021/09/30 05:39:21;;;;;;;;;;;;;;;13.62;66.91;100610.47;4992257;28;839;-59
2021/09/30 05:41:49;;;;;;;;;;;;;;;13.60;67.22;100623.97;4992115;28;861;-59
2021/09/30 05:44:21;;;;;;;;;;;;;;;13.64;66.89;100635.06;4992081;28;803;-59
2021/09/30 05:59:16;;;;;;;;;;;;;;;15.38;61.51;100652.84;4936094;29;939;-59
2021/09/30 06:12:51;;;;;;;;;;;;;;;16.05;58.95;100637.31;4935781;29;1396;-60
2021/09/30 06:15:28;;;;;;;;;;;;;;;16.44;57.93;100647.09;4935629;29;989;-59
2021/09/30 06:17:56;;;;;;;;;;;;;;;17.08;56.81;100638.88;4935242;29;1968;-60
2021/09/30 06:20:22;;;;;;;;;;;;;;;17.30;56.44;100636.47;4935591;29;915;-60
2021/09/30 06:22:49;;;;;;;;;;;;;;;17.02;56.09;100643.38;4935836;29;862;-60
2021/09/30 06:25:18;;;;;;;;;;;;;;;16.12;58.19;100642.00;4919594;29;1206;-59
2021/09/30 06:27:46;;;;;;;;;;;;;;;15.49;60.25;100634.81;4935814;29;907;-60
2021/09/30 06:30:14;;;;;;;;;;;;;;;15.05;61.85;100642.03;4935834;29;812;-60
2021/09/30 06:32:41;;;;;;;;;;;;;;;14.74;62.91;100641.13;4935571;29;961;-59
2021/09/30 06:35:08;;;;;;;;;;;;;;;15.01;62.96;100641.28;4966704;28;898;-59
2021/09/30 06:37:35;;;;;;;;;;;;;;;15.11;62.07;100631.25;4975859;28;1918;-59
2021/09/30 06:40:04;;;;;;;;;;;;;;;14.99;62.62;100635.34;4975942;28;863;-59
2021/09/30 06:42:29;;;;;;;;;;;;;;;14.83;63.07;100638.69;4975817;28;866;-59
2021/09/30 06:44:55;;;;;;;;;;;;;;;14.74;63.54;100629.22;4975856;28;808;-59
2021/09/30 06:47:22;;;;;;;;;;;;;;;14.65;63.99;100632.47;4976064;28;799;-59
2021/09/30 06:49:49;;;;;;;;;;;;;;;15.25;62.14;100631.09;4975959;28;866;-59
2021/09/30 06:52:16;;;;;;;;;;;;;;;15.33;62.15;100631.81;4975880;28;796;-60
2021/09/30 06:54:42;;;;;;;;;;;;;;;15.89;60.83;100629.53;4958437;28;898;-60
2021/09/30 06:57:10;;;;;;;;;;;;;;;16.26;59.41;100638.22;4976220;28;1890;-60
2021/09/30 06:59:37;;;;;;;;;;;;;;;16.98;56.74;100639.84;4975641;28;863;-59
2021/09/30 07:02:09;;;;;;;;;;;;;;;17.57;55.44;100639.13;4975722;28;850;-60
2021/09/30 07:04:36;;;;;;;;;;;;;;;17.83;54.55;100634.59;4974846;28;855;-60
2021/09/30 07:07:04;;;;;;;;;;;;;;;18.31;53.17;100646.34;4975304;28;803;-60
2021/09/30 07:09:31;;;;;;;;;;;;;;;18.29;52.85;100638.38;4975363;28;843;-60
2021/09/30 07:11:59;;;;;;;;;;;;;;;18.09;53.23;100643.22;4975481;28;854;-60
2021/09/30 07:14:26;;;;;;;;;;;;;;;17.78;54.04;100640.69;4975176;28;902;-59
2021/09/30 07:16:54;;;;;;;;;;;;;;;17.60;54.50;100637.47;4976495;28;1882;-60
2021/09/30 07:19:21;;;;;;;;;;;;;;;17.53;54.76;100635.59;4994659;28;885;-60
2021/09/30 07:21:50;;;;;;;;;;;;;;;17.44;54.49;100625.00;4994612;28;811;-60
2021/09/30 07:24:16;;;;;;;;;;;;;;;17.13;55.74;100624.41;4994464;28;858;-60
2021/09/30 07:26:42;;;;;;;;;;;;;;;17.25;55.89;100618.19;4994549;28;787;-60
2021/09/30 07:29:10;;;;;;;;;;;;;;;17.58;54.94;100618.34;4994634;28;894;-59
2021/09/30 07:31:37;;;;;;;;;;;;;;;17.86;54.39;100627.34;4994390;28;839;-60
2021/09/30 07:34:04;;;;;;;;;;;;;;;17.65;54.30;100631.38;4994360;28;811;-60
2021/09/30 07:36:31;;;;;;;;;;;;;;;17.46;54.80;100638.56;4994370;28;803;-59
2021/09/30 07:38:58;;;;;;;;;;;;;;;17.74;54.33;100639.97;4994194;28;1910;-59
2021/09/30 07:41:25;;;;;;;;;;;;;;;18.06;53.68;100644.91;4994129;28;870;-60
2021/09/30 07:43:52;;;;;;;;;;;;;;;18.00;53.54;100638.22;4994059;28;846;-59
2021/09/30 07:46:19;;;;;;;;;;;;;;;18.21;53.39;100634.16;4994018;28;859;-60
2021/09/30 07:48:47;;;;;;;;;;;;;;;19.02;51.45;100643.81;4993986;28;847;-60
2021/09/30 07:51:13;;;;;;;;;;;;;;;19.57;49.46;100646.72;4994069;28;842;-59
2021/09/30 07:53:41;;;;;;;;;;;;;;;19.11;49.59;100649.56;4993941;28;886;-59
2021/09/30 07:56:08;;;;;;;;;;;;;;;18.49;50.64;100645.91;4993874;28;894;-60
2021/09/30 07:58:35;;;;;;;;;;;;;;;18.33;51.79;100652.31;4976427;28;1942;-60
2021/09/30 08:01:02;;;;;;;;;;;;;;;18.49;51.56;100660.69;4994026;28;831;-60
2021/09/30 08:03:29;;;;;;;;;;;;;;;18.27;52.11;100654.03;4993747;28;847;-59
2021/09/30 08:05:56;;;;;;;;;;;;;;;18.31;52.12;100643.56;4993672;28;890;-60
2021/09/30 08:08:22;;;;;;;;;;;;;;;18.54;51.57;100648.19;4993654;28;870;-60
2021/09/30 08:10:49;;;;;;;;;;;;;;;18.71;50.83;100643.38;4993549;28;807;-60
2021/09/30 08:13:16;;;;;;;;;;;;;;;18.74;50.19;100643.28;4993641;28;870;-60
2021/09/30 08:15:43;;;;;;;;;;;;;;;18.87;49.77;100645.41;4993622;28;915;-60
2021/09/30 08:18:10;;;;;;;;;;;;;;;19.09;49.04;100645.63;4992116;28;1889;-60
2021/09/30 08:20:44;;;;;;;;;;;;;;;19.17;48.04;100650.59;4993464;28;806;-60
2021/09/30 08:23:12;;;;;;;;;;;;;;;19.00;48.02;100643.47;4993415;28;819;-59
2021/09/30 08:25:39;;;;;;;;;;;;;;;19.01;48.18;100645.06;4993363;28;847;-60
2021/09/30 08:28:07;;;;;;;;;;;;;;;18.92;48.23;100642.06;4993232;28;811;-60
2021/09/30 08:33:40;;;;;;;;;;;;;;;18.60;48.45;100649.22;4993304;28;605;-60
2021/09/30 08:36:09;;;;;;;;;;;;;;;18.74;48.52;100648.09;4993168;28;819;-59
2021/09/30 08:38:37;;;;;;;;;;;;;;;18.79;47.76;100656.00;4975567;28;1969;-60
2021/09/30 08:41:04;;;;;;;;;;;;;;;18.60;48.15;100666.03;4975614;28;1170;-60
2021/09/30 08:43:31;;;;;;;;;;;;;;;18.54;48.85;100651.78;4992915;28;787;-60
2021/09/30 08:45:58;;;;;;;;;;;;;;;18.65;48.51;100656.31;4992993;28;783;-60
2021/09/30 08:48:25;;;;;;;;;;;;;;;18.69;48.22;100652.22;4992900;28;906;-60
2021/09/30 08:50:52;;;;;;;;;;;;;;;18.49;49.23;100643.13;4992902;28;839;-60
2021/09/30 08:53:18;;;;;;;;;;;;;;;18.42;49.68;100632.88;4992835;28;878;-59
2021/09/30 08:55:45;;;;;;;;;;;;;;;19.25;47.84;100617.56;4992753;28;819;-60
2021/09/30 08:58:12;;;;;;;;;;;;;;;19.94;46.19;100620.00;4992658;28;1890;-60
2021/09/30 09:00:40;;;;;;;;;;;;;;;20.61;44.69;100629.53;4992662;28;792;-60
2021/09/30 09:03:08;;;;;;;;;;;;;;;20.94;41.28;100618.78;4992720;28;862;-60
2021/09/30 09:05:38;;;;;;;;;;;;;;;20.96;40.33;100610.69;4992656;28;830;-60
2021/09/30 09:08:07;;;;;;;;;;;;;;;20.76;41.34;100608.19;4992657;28;845;-59
2021/09/30 09:10:37;;;;;;;;;;;;;;;21.09;40.07;100621.88;4992639;28;870;-60
2021/09/30 09:13:06;;;;;;;;;;;;;;;21.43;39.52;100619.53;4992535;28;815;-60
2021/09/30 09:15:45;;;;;;;;;;;;;;;21.50;38.83;100624.88;4992440;28;828;-60
2021/09/30 09:18:46;;;;;;;;;;;;;;;21.44;38.29;100621.06;4992240;28;1940;-60
2021/09/30 09:21:15;;;;;;;;;;;;;;;21.84;38.34;100611.94;4985203;28;1078;-60
2021/09/30 09:23:53;;;;;;;;;;;;;;;21.63;38.47;100622.75;4992366;28;862;-60
2021/09/30 09:26:33;;;;;;;;;;;;;;;21.74;37.82;100608.28;4992276;28;826;-60
2021/09/30 09:29:12;;;;;;;;;;;;;;;21.41;37.22;100626.38;4992197;28;870;-60
2021/09/30 09:31:38;;;;;;;;;;;;;;;20.90;38.39;100622.97;4992236;28;870;-59
2021/09/30 09:34:22;;;;;;;;;;;;;;;21.42;38.34;100627.16;4974637;28;1470;-60
2021/09/30 09:36:52;;;;;;;;;;;;;;;21.70;37.47;100624.53;4992254;28;1964;-60
2021/09/30 09:39:34;;;;;;;;;;;;;;;21.37;38.21;100625.69;4991978;28;1085;-60
2021/09/30 09:42:09;;;;;;;;;;;;;;;21.82;38.54;100632.09;4992201;28;863;-60
2021/09/30 09:44:51;;;;;;;;;;;;;;;22.25;37.91;100630.44;4992197;28;878;-60
2021/09/30 09:47:22;;;;;;;;;;;;;;;22.59;37.46;100625.84;4992169;28;842;-60
2021/09/30 09:50:08;;;;;;;;;;;;;;;22.69;37.56;100633.09;4992366;28;867;-60
2021/09/30 09:52:42;;;;;;;;;;;;;;;22.50;37.59;100623.03;4992138;28;803;-60
2021/09/30 09:55:10;;;;;;;;;;;;;;;22.86;37.42;100622.31;4992052;28;847;-60
2021/09/30 09:57:40;;;;;;;;;;;;;;;22.70;37.52;100636.66;4991927;28;1947;-60
2021/09/30 10:00:13;;;;;;;;;;;;;;;22.20;38.17;100639.47;4992042;28;870;-60
2021/09/30 10:02:39;;;;;;;;;;;;;;;22.20;38.43;100633.84;4974810;28;926;-60
2021/09/30 10:05:06;;;;;;;;;;;;;;;22.37;38.62;100632.38;4992488;28;851;-60
2021/09/30 10:07:33;;;;;;;;;;;;;;;22.66;38.16;100616.31;4992014;28;831;-60
2021/09/30 10:10:00;;;;;;;;;;;;;;;22.68;38.31;100627.91;4992604;28;851;-59
2021/09/30 10:12:27;;;;;;;;;;;;;;;22.50;38.77;100632.25;4992147;28;807;-59
2021/09/30 10:14:54;;;;;;;;;;;;;;;22.03;39.65;100633.31;4974577;28;867;-59
2021/09/30 10:17:21;;;;;;;;;;;;;;;21.58;40.20;100643.06;4991947;28;1887;-60
2021/09/30 10:19:49;;;;;;;;;;;;;;;21.30;40.65;100639.22;4974796;28;1295;-59
2021/09/30 10:22:15;;;;;;;;;;;;;;;21.36;40.70;100635.38;4992038;28;894;-59
2021/09/30 10:24:43;;;;;;;;;;;;;;;21.31;41.18;100633.13;4992534;28;760;-60
2021/09/30 10:27:11;;;;;;;;;;;;;;;20.92;41.94;100640.16;4992224;28;1023;-60
2021/09/30 10:29:42;;;;;;;;;;;;;;;20.64;42.42;100639.09;4991833;28;799;-60
2021/09/30 10:32:10;;;;;;;;;;;;;;;20.73;42.54;100639.19;4991914;28;807;-59
2021/09/30 10:34:39;;;;;;;;;;;;;;;20.68;43.16;100631.34;4991693;28;847;-59
2021/09/30 10:37:29;;;;;;;;;;;;;;;20.58;43.68;100638.88;4991623;28;1891;-59
2021/09/30 10:40:15;;;;;;;;;;;;;;;20.54;44.17;100630.53;4992028;28;823;-59
2021/09/30 10:42:58;;;;;;;;;;;;;;;20.02;45.44;100648.63;4995368;28;878;-59
2021/09/30 10:45:45;;;;;;;;;;;;;;;20.03;45.91;100644.56;4977756;28;867;-59
2021/09/30 10:48:24;;;;;;;;;;;;;;;19.68;46.19;100641.59;4995119;28;1323;-59
2021/09/30 10:50:53;;;;;;;;;;;;;;;19.41;47.17;100638.38;4995364;28;873;-59
2021/09/30 10:53:40;;;;;;;;;;;;;;;19.30;47.64;100644.28;4995084;28;862;-59
2021/09/30 10:56:30;;;;;;;;;;;;;;;18.96;48.41;100640.75;4977483;28;1448;-59
2021/09/30 10:59:09;;;;;;;;;;;;;;;18.68;49.12;100645.03;4994991;28;1948;-59
2021/09/30 11:01:40;;;;;;;;;;;;;;;18.53;49.62;100649.41;4994998;28;799;-60
2021/09/30 11:04:07;;;;;;;;;;;;;;;18.40;50.38;100642.94;4995288;28;830;-59
2021/09/30 11:06:34;;;;;;;;;;;;;;;18.36;50.78;100649.41;4994849;28;862;-59
2021/09/30 11:09:15;;;;;;;;;;;;;;;18.39;50.83;100656.13;4994861;28;862;-59
2021/09/30 11:11:49;;;;;;;;;;;;;;;17.79;52.82;100655.44;4994577;28;803;-60
2021/09/30 11:14:19;;;;;;;;;;;;;;;16.46;60.67;100666.97;4994747;28;839;-59
2021/09/30 11:16:54;;;;;;;;;;;;;;;15.32;65.29;100663.66;4994849;28;930;-59
2021/09/30 11:19:26;;;;;;;;;;;;;;;14.74;67.67;100662.59;4994578;28;918;-60
2021/09/30 11:21:53;;;;;;;;;;;;;;;14.56;68.87;100666.31;4994528;28;841;-59
2021/09/30 11:24:20;;;;;;;;;;;;;;;14.78;69.16;100666.94;4994614;28;807;-59
2021/09/30 11:26:53;;;;;;;;;;;;;;;14.88;68.11;100673.63;4994504;28;950;-60
2021/09/30 11:29:20;;;;;;;;;;;;;;;15.04;67.84;100670.28;4994470;28;806;-59
2021/09/30 11:32:00;;;;;;;;;;;;;;;15.17;67.49;100665.81;4994437;28;943;-60
2021/09/30 11:34:31;;;;;;;;;;;;;;;15.41;66.84;100663.94;4994372;28;870;-59
2021/09/30 11:37:11;;;;;;;;;;;;;;;15.59;66.29;100665.75;4994202;28;1970;-59
2021/09/30 11:39:38;;;;;;;;;;;;;;;15.71;65.36;100665.22;4994418;28;839;-59
2021/09/30 11:42:05;;;;;;;;;;;;;;;15.85;65.07;100667.03;4994406;28;843;-59
2021/09/30 11:44:32;;;;;;;;;;;;;;;16.04;63.96;100663.59;4994182;28;831;-59
2021/09/30 11:47:00;;;;;;;;;;;;;;;16.33;62.73;100668.78;4994527;28;819;-59
2021/09/30 11:49:38;;;;;;;;;;;;;;;16.52;61.80;100668.09;4993907;28;866;-59
2021/09/30 11:52:11;;;;;;;;;;;;;;;16.68;60.41;100661.06;4993804;28;843;-60
2021/09/30 11:54:38;;;;;;;;;;;;;;;16.82;59.10;100655.28;4994004;28;847;-60
2021/09/30 11:57:04;;;;;;;;;;;;;;;16.97;59.21;100660.63;4994040;28;1878;-60
2021/09/30 11:59:32;;;;;;;;;;;;;;;17.02;58.21;100652.53;4993905;28;874;-60
2021/09/30 12:02:06;;;;;;;;;;;;;;;16.94;57.55;100651.88;4993825;28;799;-59
2021/09/30 12:04:37;;;;;;;;;;;;;;;16.93;57.26;100644.69;4993921;28;862;-59
2021/09/30 12:07:03;;;;;;;;;;;;;;;16.97;56.94;100636.28;4992484;28;887;-59
2021/09/30 12:09:34;;;;;;;;;;;;;;;17.09;56.49;100641.25;4993713;28;823;-59
2021/09/30 12:12:05;;;;;;;;;;;;;;;17.23;56.35;100634.59;4993437;28;843;-59
2021/09/30 12:14:46;;;;;;;;;;;;;;;17.40;56.15;100627.09;4993570;28;796;-59
2021/09/30 12:17:15;;;;;;;;;;;;;;;17.57;55.61;100635.53;4993371;28;1982;-60
2021/09/30 12:19:43;;;;;;;;;;;;;;;17.76;55.82;100629.94;4993534;28;807;-60
2021/09/30 12:22:12;;;;;;;;;;;;;;;17.95;55.35;100625.56;4993493;28;799;-60
2021/09/30 12:24:58;;;;;;;;;;;;;;;18.06;55.13;100625.31;4993405;28;921;-60
2021/09/30 12:27:35;;;;;;;;;;;;;;;18.17;54.30;100619.47;4993289;28;816;-60
2021/09/30 12:30:05;;;;;;;;;;;;;;;18.17;54.50;100630.66;4993559;28;811;-60
2021/09/30 12:32:33;;;;;;;;;;;;;;;18.07;54.67;100614.91;4993159;28;918;-60
2021/09/30 12:35:01;;;;;;;;;;;;;;;18.03;54.72;100620.59;4993304;28;847;-60
2021/09/30 12:37:33;;;;;;;;;;;;;;;18.02;54.39;100623.81;4993019;28;1966;-59
2021/09/30 12:40:01;;;;;;;;;;;;;;;18.01;54.65;100636.22;4992991;28;905;-60
2021/09/30 12:42:28;;;;;;;;;;;;;;;18.09;54.33;100632.84;4975614;28;878;-60
2021/09/30 12:44:56;;;;;;;;;;;;;;;18.15;54.28;100644.28;4993335;28;806;-60
2021/09/30 12:47:40;;;;;;;;;;;;;;;17.95;52.90;100639.53;4993038;28;810;-59
2021/09/30 12:50:12;;;;;;;;;;;;;;;17.85;53.17;100643.34;4992864;28;854;-59
2021/09/30 12:52:40;;;;;;;;;;;;;;;17.73;53.25;100646.78;4992986;28;873;-59
2021/09/30 12:55:22;;;;;;;;;;;;;;;17.82;53.22;100640.63;4992767;28;942;-59
2021/09/30 12:57:49;;;;;;;;;;;;;;;17.94;53.35;100632.38;4992813;28;1882;-59
2021/09/30 13:00:17;;;;;;;;;;;;;;;17.91;53.59;100635.25;4992807;28;806;-59
2021/09/30 13:02:48;;;;;;;;;;;;;;;18.05;53.39;100634.13;4992181;28;959;-59
2021/09/30 13:05:16;;;;;;;;;;;;;;;17.95;53.61;100638.75;4992763;28;894;-60
2021/09/30 13:07:43;;;;;;;;;;;;;;;17.64;54.52;100638.97;4992627;28;966;-60
2021/09/30 13:10:10;;;;;;;;;;;;;;;17.35;55.47;100663.91;4992505;28;822;-60
2021/09/30 13:12:36;;;;;;;;;;;;;;;16.67;59.82;100684.63;4975113;28;1307;-59
2021/09/30 13:15:04;;;;;;;;;;;;;;;15.16;66.41;100678.13;4992608;28;867;-59
2021/09/30 13:17:31;;;;;;;;;;;;;;;13.82;72.01;100676.66;4992453;28;1906;-59
2021/09/30 13:20:06;;;;;;;;;;;;;;;13.06;76.84;100681.59;4992507;28;875;-59
2021/09/30 13:22:41;;;;;;;;;;;;;;;12.65;79.71;100682.78;4992493;28;854;-59
2021/09/30 13:25:15;;;;;;;;;;;;;;;12.52;81.11;100680.78;4992404;28;886;-59
2021/09/30 13:27:43;;;;;;;;;;;;;;;12.55;82.95;100682.78;4992373;28;842;-59
2021/09/30 13:30:12;;;;;;;;;;;;;;;12.68;82.63;100680.41;4992573;28;804;-59
2021/09/30 13:32:39;;;;;;;;;;;;;;;12.72;83.10;100672.91;4974858;28;1370;-59
2021/09/30 13:35:06;;;;;;;;;;;;;;;12.75;83.12;100669.31;4992341;28;833;-59
2021/09/30 13:37:34;;;;;;;;;;;;;;;12.74;83.23;100668.53;4992843;28;1976;-59
2021/09/30 13:40:01;;;;;;;;;;;;;;;12.78;83.62;100658.22;4992990;28;834;-59
2021/09/30 13:42:30;;;;;;;;;;;;;;;12.85;83.91;100666.53;4992516;28;866;-59
2021/09/30 13:44:57;;;;;;;;;;;;;;;12.91;83.92;100660.56;4992337;28;783;-59
2021/09/30 13:47:25;;;;;;;;;;;;;;;12.95;83.99;100658.59;4992403;28;870;-59
2021/09/30 13:49:52;;;;;;;;;;;;;;;13.00;83.81;100663.75;4992064;28;854;-59
2021/09/30 13:52:19;;;;;;;;;;;;;;;13.01;83.37;100657.00;4992128;28;827;-59
2021/09/30 13:54:46;;;;;;;;;;;;;;;12.98;83.69;100649.50;4992037;28;784;-59
2021/09/30 13:57:14;;;;;;;;;;;;;;;13.13;83.95;100653.81;4991997;28;1882;-59
2021/09/30 13:59:43;;;;;;;;;;;;;;;13.34;83.67;100655.00;4992309;28;839;-59
2021/09/30 14:02:08;;;;;;;;;;;;;;;13.40;83.28;100645.06;4992046;28;858;-59
2021/09/30 14:04:37;;;;;;;;;;;;;;;13.40;83.27;100640.31;4991893;28;823;-59
2021/09/30 14:07:06;;;;;;;;;;;;;;;13.31;82.99;100639.91;4991914;28;918;-59
2021/09/30 14:09:33;;;;;;;;;;;;;;;13.26;82.59;100640.31;4992084;28;807;-59
2021/09/30 14:12:01;;;;;;;;;;;;;;;13.20;82.20;100631.59;4991868;28;874;-59
2021/09/30 14:14:28;;;;;;;;;;;;;;;13.17;81.79;100626.06;4993424;28;858;-59
2021/09/30 14:16:56;;;;;;;;;;;;;;;13.15;82.00;100632.00;4995599;28;1973;-59
2021/09/30 14:19:28;;;;;;;;;;;;;;;13.17;81.09;100632.41;4995783;28;847;-59
2021/09/30 14:21:56;;;;;;;;;;;;;;;13.13;80.71;100633.59;4995692;28;873;-59
2021/09/30 14:24:24;;;;;;;;;;;;;;;13.10;79.88;100635.22;4995679;28;827;-59
2021/09/30 14:26:51;;;;;;;;;;;;;;;13.12;80.25;100634.78;4978144;28;1229;-59
2021/09/30 14:29:19;;;;;;;;;;;;;;;13.11;79.30;100630.44;4995636;28;902;-59
2021/09/30 14:31:47;;;;;;;;;;;;;;;13.11;79.03;100628.44;4995606;28;851;-59
2021/09/30 14:34:14;;;;;;;;;;;;;;;13.14;79.58;100633.19;4995384;28;870;-59
2021/09/30 14:36:42;;;;;;;;;;;;;;;13.17;79.29;100635.19;4995670;28;862;-59
2021/09/30 14:39:08;;;;;;;;;;;;;;;13.21;79.79;100622.09;4995169;28;1898;-59
2021/09/30 14:41:35;;;;;;;;;;;;;;;13.23;79.23;100633.59;4995551;28;830;-59
2021/09/30 14:44:03;;;;;;;;;;;;;;;13.26;79.29;100631.97;4995215;28;823;-59
2021/09/30 14:46:31;;;;;;;;;;;;;;;13.30;79.36;100634.78;4995945;28;806;-59
2021/09/30 14:48:59;;;;;;;;;;;;;;;13.30;79.28;100638.34;4995365;28;832;-58
2021/09/30 14:51:26;;;;;;;;;;;;;;;13.18;78.77;100617.31;4995425;28;807;-59
2021/09/30 14:53:53;;;;;;;;;;;;;;;13.31;78.91;100651.03;4995581;28;882;-58
2021/09/30 14:56:20;;;;;;;;;;;;;;;13.31;78.50;100658.56;4995283;28;819;-59
2021/09/30 14:58:47;;;;;;;;;;;;;;;13.31;78.57;100650.25;4995273;28;1948;-59
2021/09/30 15:01:14;;;;;;;;;;;;;;;13.27;78.67;100659.34;4995243;28;862;-59
2021/09/30 15:03:42;;;;;;;;;;;;;;;13.28;79.17;100662.91;4995315;28;807;-59
2021/09/30 15:06:12;;;;;;;;;;;;;;;13.24;79.27;100671.25;4977457;28;804;-59
2021/09/30 15:08:40;;;;;;;;;;;;;;;13.23;79.20;100658.56;4994828;28;808;-59
2021/09/30 15:11:07;;;;;;;;;;;;;;;13.25;79.57;100674.84;4994841;28;871;-59
2021/09/30 15:13:34;;;;;;;;;;;;;;;13.18;79.81;100670.06;4994817;28;867;-59
2021/09/30 15:16:05;;;;;;;;;;;;;;;13.08;80.34;100671.69;4994679;28;919;-59
2021/09/30 15:23:56;;;;;;;;;;;;;;;12.77;81.66;100678.03;4994630;28;685;-59
2021/09/30 15:26:24;;;;;;;;;;;;;;;12.73;82.02;100685.56;4993980;28;842;-59
2021/09/30 15:28:53;;;;;;;;;;;;;;;12.65;82.19;100673.66;4994597;28;890;-59
2021/09/30 15:31:23;;;;;;;;;;;;;;;12.50;82.79;100678.41;4994526;28;886;-59
2021/09/30 15:33:51;;;;;;;;;;;;;;;12.35;83.44;100682.34;4994412;28;812;-59
2021/09/30 15:36:20;;;;;;;;;;;;;;;12.20;84.44;100689.84;4994480;28;863;-59
2021/09/30 15:38:47;;;;;;;;;;;;;;;12.11;84.91;100692.97;4994155;28;1949;-59
2021/09/30 15:41:15;;;;;;;;;;;;;;;12.05;85.20;100692.59;4994275;28;858;-59
2021/09/30 15:43:42;;;;;;;;;;;;;;;11.95;85.41;100693.34;4994205;28;839;-59
2021/09/30 15:46:08;;;;;;;;;;;;;;;11.85;85.28;100694.06;4994132;28;893;-59
2021/09/30 15:48:35;;;;;;;;;;;;;;;11.75;85.85;100689.25;4994158;28;831;-59
2021/09/30 15:51:03;;;;;;;;;;;;;;;11.69;86.42;100693.56;4994052;28;976;-59
2021/09/30 15:53:30;;;;;;;;;;;;;;;11.62;86.79;100692.34;4994106;28;863;-59
2021/09/30 15:55:57;;;;;;;;;;;;;;;11.57;86.93;100692.72;4994007;28;803;-59
2021/09/30 15:58:24;;;;;;;;;;;;;;;11.53;87.37;100694.69;4993865;28;1936;-59
2021/09/30 16:00:51;;;;;;;;;;;;;;;11.53;87.61;100685.59;4976424;28;1308;-59
2021/09/30 16:03:20;;;;;;;;;;;;;;;11.52;87.20;100689.53;4993890;28;812;-59
2021/09/30 16:05:47;;;;;;;;;;;;;;;11.52;87.84;100693.13;4993665;28;862;-59
2021/09/30 16:08:14;;;;;;;;;;;;;;;11.51;87.24;100691.50;4993839;28;804;-59
2021/09/30 16:10:42;;;;;;;;;;;;;;;11.53;87.32;100693.91;4976152;28;1273;-59
2021/09/30 16:13:09;;;;;;;;;;;;;;;11.53;87.84;100693.91;4993632;28;804;-59
2021/09/30 16:15:37;;;;;;;;;;;;;;;11.55;87.47;100694.31;4993645;28;807;-59
2021/09/30 16:18:04;;;;;;;;;;;;;;;11.54;87.61;100693.53;4993579;28;1879;-59
2021/09/30 16:20:31;;;;;;;;;;;;;;;11.54;87.54;100699.06;4993508;28;890;-59
2021/09/30 16:22:58;;;;;;;;;;;;;;;11.54;87.81;100695.47;4993496;28;819;-59
2021/09/30 16:25:25;;;;;;;;;;;;;;;11.54;87.55;100693.53;4993423;28;859;-59
2021/09/30 16:27:52;;;;;;;;;;;;;;;11.55;87.28;100692.31;4993365;28;835;-59